createdAt,value
2023-04-18T00:00:33.363Z,7.97
2023-04-18T00:03:51.191Z,7.95
2023-04-18T00:06:54.294Z,7.91
2023-04-18T00:09:57.121Z,7.89
2023-04-18T00:13:00.468Z,7.87
2023-04-18T00:16:03.965Z,7.84
2023-04-18T00:19:06.784Z,7.82
2023-04-18T00:22:10.733Z,7.81
2023-04-18T00:25:13.725Z,7.80
2023-04-18T00:28:16.442Z,7.80
2023-04-18T00:31:19.209Z,7.79
2023-04-18T00:34:21.964Z,7.79
2023-04-18T00:37:24.759Z,7.78
2023-04-18T00:40:27.518Z,7.78
2023-04-18T00:43:30.496Z,7.76
2023-04-18T00:46:33.328Z,7.75
2023-04-18T00:49:36.252Z,7.73
2023-04-18T00:52:39.313Z,7.71
2023-04-18T00:55:42.214Z,7.70
2023-04-18T00:58:45.030Z,7.69
2023-04-18T01:01:47.953Z,7.67
2023-04-18T01:04:50.776Z,7.66
2023-04-18T01:07:58.773Z,7.64
2023-04-18T01:11:01.981Z,7.62
2023-04-18T01:14:08.149Z,7.64
2023-04-18T01:17:13.523Z,7.65
2023-04-18T01:20:17.037Z,7.64
2023-04-18T01:23:20.751Z,7.63
2023-04-18T01:26:23.781Z,7.61
2023-04-18T01:29:26.844Z,7.59
2023-04-18T01:32:29.752Z,7.58
2023-04-18T01:35:33.856Z,7.58
2023-04-18T01:38:36.598Z,7.58
2023-04-18T01:41:39.456Z,7.59
2023-04-18T01:44:43.246Z,7.59
2023-04-18T01:47:47.085Z,7.59
2023-04-18T01:50:49.961Z,7.61
2023-04-18T01:53:52.740Z,7.61
2023-04-18T01:56:55.486Z,7.61
2023-04-18T01:59:58.567Z,7.61
2023-04-18T02:03:01.678Z,7.60
2023-04-18T02:06:05.797Z,7.62
2023-04-18T02:09:08.545Z,7.60
2023-04-18T02:12:12.613Z,7.59
2023-04-18T02:15:15.682Z,7.58
2023-04-18T02:18:18.534Z,7.57
2023-04-18T02:21:22.842Z,7.54
2023-04-18T02:24:25.794Z,7.53
2023-04-18T02:27:28.534Z,7.53
2023-04-18T02:30:32.959Z,7.52
2023-04-18T02:33:38.143Z,7.50
2023-04-18T02:36:40.887Z,7.47
2023-04-18T02:39:46.434Z,7.47
2023-04-18T02:42:49.169Z,7.46
2023-04-18T02:45:51.888Z,7.45
2023-04-18T02:48:54.707Z,7.44
2023-04-18T02:51:59.677Z,7.43
2023-04-18T02:55:02.459Z,7.43
2023-04-18T02:58:10.122Z,7.43
2023-04-18T03:01:12.919Z,7.42
2023-04-18T03:04:35.997Z,7.39
2023-04-18T03:07:41.658Z,7.38
2023-04-18T03:10:45.173Z,7.38
2023-04-18T03:13:48.487Z,7.37
2023-04-18T03:16:53.862Z,7.36
2023-04-18T03:20:00.899Z,7.35
2023-04-18T03:23:05.509Z,7.34
2023-04-18T03:26:09.005Z,7.35
2023-04-18T03:29:12.897Z,7.34
2023-04-18T03:32:17.472Z,7.34
2023-04-18T03:35:20.822Z,7.34
2023-04-18T03:38:23.809Z,7.35
2023-04-18T03:41:26.712Z,7.35
2023-04-18T03:44:31.526Z,7.35
2023-04-18T03:47:34.392Z,7.36
2023-04-18T03:50:37.366Z,7.37
2023-04-18T03:53:41.140Z,7.37
2023-04-18T03:56:45.158Z,7.36
2023-04-18T03:59:48.242Z,7.36
2023-04-18T04:02:51.660Z,7.37
2023-04-18T04:05:56.888Z,7.37
2023-04-18T04:09:00.122Z,7.36
2023-04-18T04:12:04.761Z,7.35
2023-04-18T04:15:08.962Z,7.35
2023-04-18T04:18:13.836Z,7.34
2023-04-18T04:21:20.076Z,7.34
2023-04-18T04:24:29.136Z,7.32
2023-04-18T04:27:34.102Z,7.31
2023-04-18T04:30:38.263Z,7.32
2023-04-18T04:33:41.242Z,7.31
2023-04-18T04:36:51.203Z,7.32
2023-04-18T04:39:55.596Z,7.35
2023-04-18T04:43:15.773Z,7.34
2023-04-18T04:46:20.386Z,7.34
2023-04-18T04:49:25.583Z,7.35
2023-04-18T04:52:28.284Z,7.35
2023-04-18T04:55:32.584Z,7.35
2023-04-18T04:58:36.976Z,7.36
2023-04-18T05:01:46.741Z,7.35
2023-04-18T05:04:50.698Z,7.36
2023-04-18T05:07:53.792Z,7.38
2023-04-18T05:10:56.641Z,7.38
2023-04-18T05:13:59.693Z,7.38
2023-04-18T05:17:04.141Z,7.37
2023-04-18T05:20:07.865Z,7.38
2023-04-18T05:23:10.654Z,7.39
2023-04-18T05:26:13.465Z,7.41
2023-04-18T05:29:16.329Z,7.43
2023-04-18T05:32:19.142Z,7.45
2023-04-18T05:35:22.090Z,7.49
2023-04-18T05:38:25.101Z,7.50
2023-04-18T05:41:27.822Z,7.50
2023-04-18T05:44:30.598Z,7.50
2023-04-18T05:47:33.790Z,7.55
2023-04-18T05:50:36.817Z,7.55
2023-04-18T05:53:39.674Z,7.55
2023-04-18T05:56:42.842Z,7.58
2023-04-18T05:59:45.913Z,7.60
2023-04-18T06:02:49.709Z,7.60
2023-04-18T06:05:52.992Z,7.60
2023-04-18T06:08:55.916Z,7.58
2023-04-18T06:11:58.723Z,7.60
2023-04-18T06:15:01.957Z,7.62
2023-04-18T06:18:04.905Z,7.62
2023-04-18T06:21:07.812Z,7.65
2023-04-18T06:24:10.593Z,7.68
2023-04-18T06:27:24.393Z,7.71
2023-04-18T06:30:33.992Z,7.73
2023-04-18T06:33:37.908Z,7.74
2023-04-18T06:36:41.030Z,7.78
2023-04-18T06:39:43.887Z,7.81
2023-04-18T06:42:46.819Z,7.83
2023-04-18T06:45:49.824Z,7.86
2023-04-18T06:48:52.623Z,7.89
2023-04-18T06:51:55.558Z,7.90
2023-04-18T06:54:58.354Z,7.93
2023-04-18T06:58:01.276Z,7.95
2023-04-18T07:01:04.034Z,7.99
2023-04-18T07:04:07.132Z,8.01
2023-04-18T07:07:10.178Z,8.01
2023-04-18T07:10:12.911Z,8.04
2023-04-18T07:13:16.025Z,8.08
2023-04-18T07:16:18.970Z,8.09
2023-04-18T07:19:21.869Z,8.08
2023-04-18T07:22:24.640Z,8.09
2023-04-18T07:25:27.680Z,8.13
2023-04-18T07:28:31.938Z,8.17
2023-04-18T07:31:34.985Z,8.18
2023-04-18T07:34:37.786Z,8.20
2023-04-18T07:37:40.747Z,8.22
2023-04-18T07:40:45.673Z,8.24
2023-04-18T07:43:48.550Z,8.28
2023-04-18T07:46:51.979Z,8.30
2023-04-18T07:49:55.043Z,8.33
2023-04-18T07:52:57.873Z,8.38
2023-04-18T07:56:00.650Z,8.44
2023-04-18T07:59:03.700Z,8.51
2023-04-18T08:02:06.690Z,8.57
2023-04-18T08:05:10.276Z,8.65
2023-04-18T08:08:13.453Z,8.73
2023-04-18T08:11:16.562Z,8.82
2023-04-18T08:14:19.286Z,8.87
2023-04-18T08:17:23.080Z,8.90
2023-04-18T08:20:25.970Z,8.94
2023-04-18T08:23:28.985Z,8.98
2023-04-18T08:26:31.794Z,9.05
2023-04-18T08:29:34.572Z,9.15
2023-04-18T08:32:37.555Z,9.22
2023-04-18T08:35:40.958Z,9.34
2023-04-18T08:38:43.724Z,9.44
2023-04-18T08:41:53.682Z,9.56
2023-04-18T08:44:58.968Z,9.65
2023-04-18T08:48:03.682Z,9.71
2023-04-18T08:51:07.111Z,9.82
2023-04-18T08:54:10.439Z,9.99
2023-04-18T08:57:16.742Z,10.12
2023-04-18T09:00:19.900Z,10.25
2023-04-18T09:03:55.214Z,10.34
2023-04-18T09:06:58.134Z,10.49
2023-04-18T09:10:01.085Z,10.56
2023-04-18T09:13:04.436Z,10.59
2023-04-18T09:16:07.212Z,10.60
2023-04-18T09:19:13.115Z,10.60
2023-04-18T09:22:18.014Z,10.60
2023-04-18T09:25:46.752Z,10.63
2023-04-18T09:28:53.977Z,10.69
2023-04-18T09:32:01.346Z,10.72
2023-04-18T09:35:05.494Z,10.73
2023-04-18T09:38:08.788Z,10.78
2023-04-18T09:41:13.046Z,10.83
2023-04-18T09:44:17.704Z,10.88
2023-04-18T09:47:20.814Z,10.89
2023-04-18T09:50:24.000Z,10.92
2023-04-18T09:53:28.354Z,11.03
2023-04-18T09:56:34.483Z,11.08
2023-04-18T09:59:44.213Z,11.10
2023-04-18T10:02:51.502Z,11.06
2023-04-18T10:05:57.768Z,11.10
2023-04-18T10:09:03.455Z,11.16
2023-04-18T10:12:06.708Z,11.21
2023-04-18T10:15:11.169Z,11.23
2023-04-18T10:18:17.086Z,11.25
2023-04-18T10:21:21.965Z,11.25
2023-04-18T10:24:50.200Z,11.29
2023-04-18T10:27:58.458Z,11.34
2023-04-18T10:31:05.789Z,11.40
2023-04-18T10:34:08.710Z,11.45
2023-04-18T10:37:13.103Z,11.50
2023-04-18T10:40:15.868Z,11.51
2023-04-18T10:43:18.877Z,11.51
2023-04-18T10:46:31.676Z,11.49
2023-04-18T10:49:38.347Z,11.50
2023-04-18T10:52:41.917Z,11.52
2023-04-18T10:55:55.232Z,11.53
2023-04-18T10:59:01.964Z,11.58
2023-04-18T11:02:23.208Z,11.66
2023-04-18T11:05:28.904Z,11.75
2023-04-18T11:08:31.611Z,11.85
2023-04-18T11:11:34.454Z,11.96
2023-04-18T11:14:44.741Z,12.03
2023-04-18T11:17:57.109Z,12.10
2023-04-18T11:21:03.791Z,12.20
2023-04-18T11:24:06.691Z,12.32
2023-04-18T11:27:11.712Z,12.41
2023-04-18T11:30:15.597Z,12.47
2023-04-18T11:33:18.393Z,12.57
2023-04-18T11:36:21.614Z,12.66
2023-04-18T11:39:24.819Z,12.79
2023-04-18T11:42:31.191Z,12.92
2023-04-18T11:45:34.041Z,13.10
2023-04-18T11:48:45.383Z,13.28
2023-04-18T11:51:48.424Z,13.35
2023-04-18T11:54:51.393Z,13.36
2023-04-18T11:57:56.045Z,13.31
2023-04-18T12:01:00.029Z,13.32
2023-04-18T12:04:10.909Z,13.29
2023-04-18T12:07:14.104Z,13.23
2023-04-18T12:10:19.925Z,13.24
2023-04-18T12:13:31.523Z,13.31
2023-04-18T12:16:35.124Z,13.38
2023-04-18T12:19:37.964Z,13.49
2023-04-18T12:22:43.537Z,13.56
2023-04-18T12:25:59.876Z,13.65
2023-04-18T12:29:02.726Z,13.75
2023-04-18T12:32:06.154Z,13.86
2023-04-18T12:35:09.462Z,13.93
2023-04-18T12:38:12.600Z,13.98
2023-04-18T12:41:15.311Z,13.93
2023-04-18T12:44:18.294Z,13.92
2023-04-18T12:47:21.080Z,13.88
2023-04-18T12:50:26.532Z,13.82
2023-04-18T12:53:29.356Z,13.73
2023-04-18T12:56:32.147Z,13.66
2023-04-18T12:59:34.995Z,13.61
2023-04-18T13:02:39.495Z,13.56
2023-04-18T13:05:42.681Z,13.53
2023-04-18T13:08:47.460Z,13.55
2023-04-18T13:11:50.568Z,13.61
2023-04-18T13:14:53.272Z,13.71
2023-04-18T13:17:56.839Z,13.81
2023-04-18T13:20:59.909Z,13.82
2023-04-18T13:24:02.662Z,13.82
2023-04-18T13:27:10.372Z,13.87
2023-04-18T13:30:13.731Z,13.94
2023-04-18T13:33:17.117Z,14.03
2023-04-18T13:36:20.763Z,14.05
2023-04-18T13:39:24.895Z,14.04
2023-04-18T13:42:27.751Z,14.01
2023-04-18T13:45:30.530Z,13.98
2023-04-18T13:48:33.280Z,13.97
2023-04-18T13:51:36.065Z,13.92
2023-04-18T13:54:38.805Z,13.87
2023-04-18T13:57:41.717Z,13.85
2023-04-18T14:00:44.556Z,13.81
2023-04-18T14:03:47.631Z,13.74
2023-04-18T14:06:51.011Z,13.70
2023-04-18T14:09:54.015Z,13.66
2023-04-18T14:12:57.523Z,13.61
2023-04-18T14:16:00.940Z,13.53
2023-04-18T14:19:03.954Z,13.42
2023-04-18T14:22:08.031Z,13.33
2023-04-18T14:25:11.036Z,13.27
2023-04-18T14:28:13.905Z,13.19
2023-04-18T14:31:16.923Z,13.12
2023-04-18T14:34:19.783Z,13.05
2023-04-18T14:37:22.499Z,12.99
2023-04-18T14:40:25.254Z,12.97
2023-04-18T14:43:28.036Z,12.95
2023-04-18T14:46:31.026Z,12.92
2023-04-18T14:49:34.321Z,12.90
2023-04-18T14:52:37.841Z,12.91
2023-04-18T14:55:40.622Z,12.96
2023-04-18T14:59:16.422Z,13.01
2023-04-18T15:02:19.991Z,13.07
2023-04-18T15:05:26.064Z,13.13
2023-04-18T15:08:31.338Z,13.19
2023-04-18T15:11:35.486Z,13.22
2023-04-18T15:14:38.267Z,13.26
2023-04-18T15:17:41.368Z,13.30
2023-04-18T15:20:44.400Z,13.34
2023-04-18T15:23:47.267Z,13.40
2023-04-18T15:26:50.014Z,13.45
2023-04-18T15:29:53.353Z,13.42
2023-04-18T15:32:56.612Z,13.40
2023-04-18T15:35:59.557Z,13.36
2023-04-18T15:39:05.918Z,13.34
2023-04-18T15:42:08.823Z,13.30
2023-04-18T15:45:12.353Z,13.29
2023-04-18T15:48:15.113Z,13.29
2023-04-18T15:51:18.114Z,13.30
2023-04-18T15:54:20.847Z,13.30
2023-04-18T15:57:23.630Z,13.29
2023-04-18T16:00:26.445Z,13.28
2023-04-18T16:03:29.396Z,13.29
2023-04-18T16:06:32.457Z,13.29
2023-04-18T16:09:35.192Z,13.29
2023-04-18T16:12:39.190Z,13.29
2023-04-18T16:15:42.898Z,13.26
2023-04-18T16:18:45.882Z,13.22
2023-04-18T16:21:50.259Z,13.22
2023-04-18T16:24:53.089Z,13.21
2023-04-18T16:27:55.889Z,13.20
2023-04-18T16:30:58.695Z,13.17
2023-04-18T16:34:03.233Z,13.16
2023-04-18T16:37:06.316Z,13.14
2023-04-18T16:40:12.511Z,13.13
2023-04-18T16:43:15.386Z,13.13
2023-04-18T16:46:19.147Z,13.11
2023-04-18T16:49:23.672Z,13.11
2023-04-18T16:52:26.703Z,13.08
2023-04-18T16:55:29.494Z,13.07
2023-04-18T16:58:32.309Z,13.06
2023-04-18T17:01:36.230Z,13.04
2023-04-18T17:04:39.483Z,13.03
2023-04-18T17:11:59.511Z,12.98
2023-04-18T17:18:52.393Z,12.96
2023-04-18T17:21:55.786Z,12.94
2023-04-18T17:24:58.659Z,12.91
2023-04-18T17:28:02.318Z,12.89
2023-04-18T17:31:05.272Z,12.87
2023-04-18T17:34:08.493Z,12.84
2023-04-18T17:37:11.868Z,12.81
2023-04-18T17:40:15.359Z,12.79
2023-04-18T17:43:18.479Z,12.77
2023-04-18T17:46:21.327Z,12.73
2023-04-18T17:49:24.182Z,12.70
2023-04-18T17:52:30.662Z,12.66
2023-04-18T17:55:33.573Z,12.62
2023-04-18T17:58:36.656Z,12.57
2023-04-18T18:01:39.659Z,12.54
2023-04-18T18:04:42.695Z,12.51
2023-04-18T18:07:48.208Z,12.48
2023-04-18T18:10:52.114Z,12.44
2023-04-18T18:13:57.193Z,12.39
2023-04-18T18:17:00.095Z,12.36
2023-04-18T18:20:04.955Z,12.33
2023-04-18T18:23:07.667Z,12.31
2023-04-18T18:26:10.726Z,12.26
2023-04-18T18:29:14.390Z,12.24
2023-04-18T18:32:17.370Z,12.22
2023-04-18T18:35:20.784Z,12.20
2023-04-18T18:38:23.886Z,12.17
2023-04-18T18:41:27.017Z,12.15
2023-04-18T18:44:30.404Z,12.13
2023-04-18T18:47:34.299Z,12.10
2023-04-18T18:50:37.921Z,12.07
2023-04-18T18:53:40.772Z,12.06
2023-04-18T18:56:45.240Z,12.03
2023-04-18T18:59:51.795Z,12.01
2023-04-18T19:02:56.014Z,11.99
2023-04-18T19:05:59.541Z,11.98
2023-04-18T19:09:02.346Z,11.96
2023-04-18T19:12:05.994Z,11.94
2023-04-18T19:15:09.789Z,11.92
2023-04-18T19:18:12.515Z,11.91
2023-04-18T19:21:16.015Z,11.90
2023-04-18T19:24:18.797Z,11.88
2023-04-18T19:27:22.154Z,11.87
2023-04-18T19:30:25.346Z,11.86
2023-04-18T19:33:29.335Z,11.84
2023-04-18T19:36:32.163Z,11.83
2023-04-18T19:39:35.089Z,11.81
2023-04-18T19:42:38.076Z,11.78
2023-04-18T19:45:40.980Z,11.74
2023-04-18T19:48:43.802Z,11.72
2023-04-18T19:51:46.530Z,11.71
2023-04-18T19:54:49.322Z,11.67
2023-04-18T19:57:56.180Z,11.65
2023-04-18T20:00:58.921Z,11.63
2023-04-18T20:04:02.251Z,11.64
2023-04-18T20:07:05.733Z,11.61
2023-04-18T20:10:09.488Z,11.58
2023-04-18T20:13:12.228Z,11.56
2023-04-18T20:16:16.934Z,11.52
2023-04-18T20:19:19.877Z,11.47
2023-04-18T20:22:24.952Z,11.44
2023-04-18T20:25:27.680Z,11.39
2023-04-18T20:28:31.472Z,11.34
2023-04-18T20:31:35.169Z,11.28
2023-04-18T20:34:38.091Z,11.23
2023-04-18T20:37:41.474Z,11.17
2023-04-18T20:40:44.992Z,11.12
2023-04-18T20:43:47.950Z,11.05
2023-04-18T20:46:53.391Z,11.03
2023-04-18T20:49:56.676Z,11.00
2023-04-18T20:53:00.611Z,10.96
2023-04-18T20:56:03.595Z,10.91
2023-04-18T20:59:06.429Z,10.87
2023-04-18T21:02:09.324Z,10.82
2023-04-18T21:05:12.392Z,10.77
2023-04-18T21:08:15.681Z,10.73
2023-04-18T21:11:18.577Z,10.69
2023-04-18T21:14:21.358Z,10.64
2023-04-18T21:17:25.565Z,10.60
2023-04-18T21:20:28.453Z,10.57
2023-04-18T21:23:31.221Z,10.53
2023-04-18T21:26:34.024Z,10.50
2023-04-18T21:29:36.769Z,10.46
2023-04-18T21:32:39.526Z,10.44
2023-04-18T21:35:42.531Z,10.41
2023-04-18T21:38:45.915Z,10.38
2023-04-18T21:41:48.611Z,10.36
2023-04-18T21:44:51.650Z,10.34
2023-04-18T21:47:54.468Z,10.31
2023-04-18T21:50:57.287Z,10.29
2023-04-18T21:54:00.423Z,10.25
2023-04-18T21:57:03.385Z,10.20
2023-04-18T22:00:08.614Z,10.17
2023-04-18T22:03:13.134Z,10.14
2023-04-18T22:06:16.238Z,10.13
2023-04-18T22:09:19.466Z,10.11
2023-04-18T22:12:22.183Z,10.08
2023-04-18T22:15:26.949Z,10.07
2023-04-18T22:18:33.618Z,10.04
2023-04-18T22:21:36.934Z,10.03
2023-04-18T22:24:39.709Z,9.99
2023-04-18T22:27:43.277Z,9.97
2023-04-18T22:30:46.248Z,9.96
2023-04-18T22:33:49.180Z,9.94
2023-04-18T22:36:51.951Z,9.93
2023-04-18T22:39:54.662Z,9.93
2023-04-18T22:42:57.416Z,9.91
2023-04-18T22:46:00.797Z,9.89
2023-04-18T22:49:04.055Z,9.89
2023-04-18T22:52:08.501Z,9.87
2023-04-18T22:55:11.409Z,9.87
2023-04-18T22:58:14.248Z,9.88
2023-04-18T23:01:17.067Z,9.87
2023-04-18T23:04:20.290Z,9.86
2023-04-18T23:07:23.339Z,9.83
2023-04-18T23:10:26.406Z,9.80
2023-04-18T23:13:29.368Z,9.76
2023-04-18T23:16:32.502Z,9.72
2023-04-18T23:19:35.312Z,9.68
2023-04-18T23:22:38.847Z,9.66
2023-04-18T23:25:41.655Z,9.63
2023-04-18T23:28:44.479Z,9.59
2023-04-18T23:31:47.378Z,9.57
2023-04-18T23:34:50.341Z,9.55
2023-04-18T23:37:53.067Z,9.52
2023-04-18T23:40:55.948Z,9.50
2023-04-18T23:43:59.707Z,9.46
2023-04-18T23:47:02.631Z,9.41
2023-04-18T23:50:06.108Z,9.38
2023-04-18T23:53:08.827Z,9.34
2023-04-18T23:56:11.703Z,9.33
2023-04-18T23:59:14.443Z,9.31
